createdAt,value
2023-03-17T00:00:46.306Z,105.47
2023-03-17T00:03:18.921Z,97.63
2023-03-17T00:05:45.882Z,97.13
2023-03-17T00:08:33.041Z,89.63
2023-03-17T00:10:59.581Z,88.87
2023-03-17T00:13:26.276Z,83.83
2023-03-17T00:15:57.139Z,81.50
2023-03-17T00:18:23.878Z,72.23
2023-03-17T00:20:50.462Z,84.63
2023-03-17T00:23:23.191Z,82.87
2023-03-17T00:25:49.910Z,83.17
2023-03-17T00:28:17.722Z,82.93
2023-03-17T00:30:44.821Z,83.03
2023-03-17T00:33:11.328Z,86.60
2023-03-17T00:35:38.421Z,83.37
2023-03-17T00:38:05.357Z,79.93
2023-03-17T00:40:32.697Z,83.67
2023-03-17T00:43:00.184Z,89.50
2023-03-17T00:45:27.213Z,80.60
2023-03-17T00:47:55.164Z,91.67
2023-03-17T00:50:25.544Z,88.17
2023-03-17T00:52:52.666Z,103.20
2023-03-17T00:55:19.795Z,88.50
2023-03-17T00:57:46.625Z,83.30
2023-03-17T01:00:24.750Z,84.83
2023-03-17T01:02:51.875Z,80.03
2023-03-17T01:05:18.645Z,78.70
2023-03-17T01:07:48.098Z,88.70
2023-03-17T01:10:16.548Z,95.37
2023-03-17T01:12:43.228Z,88.07
2023-03-17T01:15:09.988Z,99.13
2023-03-17T01:17:38.184Z,82.57
2023-03-17T01:20:06.737Z,89.07
2023-03-17T01:22:33.409Z,84.03
2023-03-17T01:24:59.893Z,93.40
2023-03-17T01:27:26.464Z,80.93
2023-03-17T01:29:54.014Z,87.43
2023-03-17T01:32:20.769Z,87.07
2023-03-17T01:34:47.423Z,79.53
2023-03-17T01:37:15.175Z,80.40
2023-03-17T01:39:42.052Z,78.07
2023-03-17T01:42:08.615Z,73.17
2023-03-17T01:44:35.199Z,78.07
2023-03-17T01:47:01.704Z,79.97
2023-03-17T01:49:30.072Z,71.87
2023-03-17T01:52:06.074Z,78.90
2023-03-17T01:54:40.196Z,73.80
2023-03-17T01:57:11.081Z,63.87
2023-03-17T01:59:39.780Z,67.20
2023-03-17T02:02:07.546Z,78.60
2023-03-17T02:04:34.222Z,73.23
2023-03-17T02:07:00.995Z,74.77
2023-03-17T02:09:27.568Z,72.50
2023-03-17T02:11:54.604Z,76.03
2023-03-17T02:14:21.241Z,74.07
2023-03-17T02:16:48.673Z,76.03
2023-03-17T02:19:15.228Z,70.43
2023-03-17T02:21:46.477Z,72.73
2023-03-17T02:24:24.683Z,67.87
2023-03-17T02:26:51.190Z,67.67
2023-03-17T02:29:18.911Z,65.70
2023-03-17T02:31:45.601Z,61.63
2023-03-17T02:34:12.105Z,60.67
2023-03-17T02:36:38.664Z,70.43
2023-03-17T02:39:06.266Z,71.77
2023-03-17T02:41:32.998Z,59.63
2023-03-17T02:43:59.555Z,62.50
2023-03-17T02:46:26.364Z,67.67
2023-03-17T02:48:52.939Z,63.03
2023-03-17T02:51:19.476Z,59.60
2023-03-17T02:53:46.109Z,50.17
2023-03-17T02:56:12.656Z,59.17
2023-03-17T02:58:39.191Z,55.20
2023-03-17T03:01:05.804Z,51.40
2023-03-17T03:03:33.001Z,52.77
2023-03-17T03:06:01.007Z,51.97
2023-03-17T03:08:29.310Z,53.90
2023-03-17T03:10:55.884Z,54.40
2023-03-17T03:13:22.482Z,57.70
2023-03-17T03:15:49.118Z,54.20
2023-03-17T03:18:15.668Z,54.37
2023-03-17T03:20:42.970Z,57.00
2023-03-17T03:23:09.475Z,56.47
2023-03-17T03:25:37.723Z,52.40
2023-03-17T03:28:05.177Z,50.73
2023-03-17T03:30:32.064Z,51.70
2023-03-17T03:32:58.915Z,60.47
2023-03-17T03:35:25.406Z,58.23
2023-03-17T03:37:51.879Z,58.40
2023-03-17T03:40:18.392Z,59.00
2023-03-17T03:42:44.959Z,54.67
2023-03-17T03:45:11.511Z,63.73
2023-03-17T03:47:37.986Z,65.70
2023-03-17T03:50:04.782Z,58.57
2023-03-17T03:52:31.254Z,62.27
2023-03-17T03:54:57.811Z,57.00
2023-03-17T03:57:24.327Z,54.13
2023-03-17T03:59:51.122Z,58.17
2023-03-17T04:02:18.456Z,55.43
2023-03-17T04:04:44.941Z,59.63
2023-03-17T04:07:11.444Z,56.47
2023-03-17T04:09:37.949Z,53.60
2023-03-17T04:12:04.627Z,69.77
2023-03-17T04:14:31.147Z,78.17
2023-03-17T04:16:57.647Z,84.47
2023-03-17T04:19:24.174Z,80.67
2023-03-17T04:21:52.890Z,70.87
2023-03-17T04:24:21.378Z,73.93
2023-03-17T04:26:47.848Z,68.63
2023-03-17T04:29:16.207Z,73.07
2023-03-17T04:31:42.832Z,59.90
2023-03-17T04:34:12.611Z,65.33
2023-03-17T04:36:39.084Z,67.30
2023-03-17T04:39:05.576Z,63.83
2023-03-17T04:41:32.463Z,51.93
2023-03-17T04:43:58.953Z,53.30
2023-03-17T04:46:25.718Z,59.53
2023-03-17T04:48:52.569Z,52.43
2023-03-17T04:51:19.078Z,59.40
2023-03-17T04:53:45.865Z,48.50
2023-03-17T04:56:12.459Z,59.60
2023-03-17T04:58:39.003Z,48.27
2023-03-17T05:01:05.707Z,50.10
2023-03-17T05:03:33.294Z,51.57
2023-03-17T05:06:00.240Z,43.37
2023-03-17T05:08:28.332Z,46.03
2023-03-17T05:10:56.177Z,50.43
2023-03-17T05:13:23.146Z,50.50
2023-03-17T05:15:50.181Z,55.03
2023-03-17T05:18:16.716Z,46.17
2023-03-17T05:20:43.172Z,46.30
2023-03-17T05:23:09.918Z,43.63
2023-03-17T05:25:36.938Z,48.87
2023-03-17T05:28:03.535Z,50.13
2023-03-17T05:30:30.759Z,41.37
2023-03-17T05:32:57.550Z,47.20
2023-03-17T05:35:24.161Z,49.77
2023-03-17T05:37:51.219Z,54.43
2023-03-17T05:40:17.785Z,46.13
2023-03-17T05:42:44.271Z,45.37
2023-03-17T05:45:11.068Z,38.20
2023-03-17T05:47:37.845Z,41.63
2023-03-17T05:50:04.923Z,40.40
2023-03-17T05:52:31.784Z,41.43
2023-03-17T05:54:58.333Z,42.43
2023-03-17T05:57:24.938Z,37.23
2023-03-17T05:59:51.482Z,43.80
2023-03-17T06:02:18.076Z,39.60
2023-03-17T06:04:44.686Z,39.53
2023-03-17T06:07:12.172Z,40.23
2023-03-17T06:09:38.657Z,30.77
2023-03-17T06:12:05.276Z,39.63
2023-03-17T06:14:31.765Z,35.50
2023-03-17T06:16:58.858Z,37.93
2023-03-17T06:19:25.875Z,31.10
2023-03-17T06:21:52.328Z,35.20
2023-03-17T06:24:19.362Z,32.00
2023-03-17T06:26:46.224Z,34.50
2023-03-17T06:29:12.813Z,31.33
2023-03-17T06:31:39.558Z,28.10
2023-03-17T06:34:06.095Z,36.03
2023-03-17T06:36:32.877Z,35.17
2023-03-17T06:38:59.785Z,29.33
2023-03-17T06:41:26.443Z,27.60
2023-03-17T06:43:52.973Z,28.33
2023-03-17T06:46:19.535Z,23.13
2023-03-17T06:48:46.608Z,24.77
2023-03-17T06:51:13.103Z,25.67
2023-03-17T06:53:39.556Z,25.97
2023-03-17T06:56:06.348Z,21.63
2023-03-17T06:58:33.264Z,22.53
2023-03-17T07:01:00.466Z,21.93
2023-03-17T07:03:27.154Z,20.10
2023-03-17T07:05:53.678Z,21.67
2023-03-17T07:08:20.182Z,20.93
2023-03-17T07:10:46.689Z,23.07
2023-03-17T07:13:13.739Z,24.13
2023-03-17T07:15:40.250Z,23.43
2023-03-17T07:18:07.120Z,19.07
2023-03-17T07:20:33.716Z,24.47
2023-03-17T07:23:00.471Z,23.67
2023-03-17T07:25:27.035Z,21.53
2023-03-17T07:27:53.580Z,21.73
2023-03-17T07:30:20.699Z,19.57
2023-03-17T07:32:47.795Z,18.67
2023-03-17T07:35:15.590Z,18.87
2023-03-17T07:37:42.483Z,17.50
2023-03-17T07:40:09.762Z,21.67
2023-03-17T07:42:36.618Z,21.03
2023-03-17T07:45:04.194Z,18.37
2023-03-17T07:47:30.701Z,23.80
2023-03-17T07:49:57.382Z,19.93
2023-03-17T07:52:23.930Z,17.57
2023-03-17T07:54:52.161Z,21.63
2023-03-17T07:57:18.756Z,19.73
2023-03-17T07:59:45.711Z,13.00
2023-03-17T08:02:16.450Z,14.83
2023-03-17T08:04:43.331Z,19.37
2023-03-17T08:07:10.546Z,16.13
2023-03-17T08:09:37.510Z,14.33
2023-03-17T08:12:04.539Z,15.23
2023-03-17T08:14:31.017Z,14.97
2023-03-17T08:16:57.670Z,13.30
2023-03-17T08:19:25.511Z,14.63
2023-03-17T08:21:52.047Z,12.83
2023-03-17T08:24:18.603Z,11.57
2023-03-17T08:26:48.184Z,13.77
2023-03-17T08:29:15.609Z,11.27
2023-03-17T08:31:43.177Z,8.07
2023-03-17T08:34:11.148Z,12.90
2023-03-17T08:36:37.688Z,9.57
2023-03-17T08:39:04.901Z,8.03
2023-03-17T08:41:32.111Z,13.97
2023-03-17T08:43:58.771Z,13.03
2023-03-17T08:46:27.209Z,10.17
2023-03-17T08:48:55.031Z,11.07
2023-03-17T08:51:24.359Z,9.07
2023-03-17T08:53:51.425Z,8.60
2023-03-17T08:56:17.978Z,7.40
2023-03-17T08:58:44.629Z,9.57
2023-03-17T09:01:11.615Z,13.07
2023-03-17T09:03:39.470Z,7.70
2023-03-17T09:06:07.096Z,8.13
2023-03-17T09:08:34.365Z,6.57
2023-03-17T09:11:01.357Z,4.73
2023-03-17T09:13:28.397Z,4.30
2023-03-17T09:15:56.240Z,5.57
2023-03-17T09:18:23.115Z,7.00
2023-03-17T09:20:49.622Z,5.50
2023-03-17T09:23:16.613Z,9.10
2023-03-17T09:25:44.408Z,6.27
2023-03-17T09:28:11.439Z,6.30
2023-03-17T09:30:37.986Z,8.87
2023-03-17T09:33:05.082Z,10.03
2023-03-17T09:35:32.464Z,7.30
2023-03-17T09:37:59.137Z,7.57
2023-03-17T09:40:32.597Z,9.27
2023-03-17T09:43:06.107Z,5.47
2023-03-17T09:45:37.488Z,9.03
2023-03-17T09:48:22.822Z,6.13
2023-03-17T09:50:49.473Z,8.80
2023-03-17T09:53:17.882Z,9.20
2023-03-17T09:55:44.419Z,12.63
2023-03-17T09:58:11.084Z,9.57
2023-03-17T10:00:37.816Z,9.60
2023-03-17T10:03:06.261Z,8.93
2023-03-17T10:05:35.065Z,11.60
2023-03-17T10:08:01.790Z,10.43
2023-03-17T10:10:48.392Z,10.83
2023-03-17T10:13:24.040Z,11.13
2023-03-17T10:15:50.631Z,11.33
2023-03-17T10:18:18.343Z,8.70
2023-03-17T10:20:51.387Z,9.30
2023-03-17T10:23:20.328Z,9.80
2023-03-17T10:25:46.927Z,10.13
2023-03-17T10:28:20.817Z,9.27
2023-03-17T10:30:47.402Z,14.53
2023-03-17T10:33:13.939Z,11.40
2023-03-17T10:35:40.751Z,11.73
2023-03-17T10:38:19.919Z,6.77
2023-03-17T10:40:47.970Z,6.67
2023-03-17T10:43:17.259Z,11.00
2023-03-17T10:45:47.926Z,9.60
2023-03-17T10:48:17.480Z,10.90
2023-03-17T10:50:45.979Z,7.23
2023-03-17T10:53:27.936Z,9.30
2023-03-17T10:56:06.945Z,11.23
2023-03-17T10:58:38.493Z,11.97
2023-03-17T11:01:11.195Z,8.07
2023-03-17T11:03:41.869Z,8.07
2023-03-17T11:06:08.854Z,7.50
2023-03-17T11:08:36.852Z,9.47
2023-03-17T11:11:04.902Z,7.00
2023-03-17T11:13:31.589Z,9.10
2023-03-17T11:16:04.545Z,6.17
2023-03-17T11:18:33.413Z,8.43
2023-03-17T11:21:01.517Z,8.43
2023-03-17T11:23:28.045Z,7.77
2023-03-17T11:26:03.684Z,11.87
2023-03-17T11:28:31.074Z,6.30
2023-03-17T11:31:16.360Z,6.93
2023-03-17T11:33:46.597Z,6.13
2023-03-17T11:36:15.824Z,10.03
2023-03-17T11:38:49.976Z,8.23
2023-03-17T11:41:26.203Z,9.10
2023-03-17T11:43:52.987Z,9.57
2023-03-17T11:46:21.379Z,4.70
2023-03-17T11:49:05.365Z,5.73
2023-03-17T11:51:50.849Z,8.27
2023-03-17T11:54:20.472Z,6.60
2023-03-17T11:56:51.878Z,8.53
2023-03-17T11:59:24.498Z,7.83
2023-03-17T12:01:54.935Z,5.40
2023-03-17T12:04:24.530Z,6.87
2023-03-17T12:06:56.145Z,7.13
2023-03-17T12:09:47.481Z,7.23
2023-03-17T12:12:16.076Z,7.73
2023-03-17T12:14:45.288Z,10.63
2023-03-17T12:17:16.225Z,7.17
2023-03-17T12:19:44.689Z,10.07
2023-03-17T12:22:14.431Z,6.03
2023-03-17T12:24:51.900Z,6.63
2023-03-17T12:27:34.477Z,5.87
2023-03-17T12:30:03.143Z,9.17
2023-03-17T12:32:29.667Z,10.43
2023-03-17T12:34:57.555Z,6.80
2023-03-17T12:37:25.018Z,9.27
2023-03-17T12:39:55.698Z,6.50
2023-03-17T12:42:31.485Z,5.90
2023-03-17T12:45:08.090Z,5.53
2023-03-17T12:47:43.818Z,7.35
2023-03-17T12:50:25.792Z,7.13
2023-03-17T12:52:58.502Z,7.78
2023-03-17T12:55:27.068Z,6.70
2023-03-17T12:58:12.379Z,6.75
2023-03-17T13:00:49.189Z,7.05
2023-03-17T13:03:26.201Z,5.87
2023-03-17T13:05:53.988Z,6.67
2023-03-17T13:08:24.445Z,4.28
2023-03-17T13:10:51.309Z,7.70
2023-03-17T13:13:40.840Z,6.75
2023-03-17T13:16:26.739Z,6.63
2023-03-17T13:19:06.154Z,4.90
2023-03-17T13:21:35.398Z,7.85
2023-03-17T13:24:18.669Z,7.77
2023-03-17T13:26:59.553Z,8.50
2023-03-17T13:29:32.397Z,6.97
2023-03-17T13:32:17.271Z,7.23
2023-03-17T13:34:50.766Z,7.90
2023-03-17T13:37:26.470Z,8.13
2023-03-17T13:39:59.041Z,6.63
2023-03-17T13:42:31.975Z,9.07
2023-03-17T13:45:08.084Z,7.25
2023-03-17T13:47:35.703Z,5.05
2023-03-17T13:50:16.063Z,5.30
2023-03-17T13:52:49.793Z,6.23
2023-03-17T13:55:20.471Z,9.33
2023-03-17T13:57:57.172Z,8.50
2023-03-17T14:00:27.372Z,9.05
2023-03-17T14:02:59.909Z,5.80
2023-03-17T14:05:27.481Z,6.70
2023-03-17T14:07:54.015Z,8.68
2023-03-17T14:10:21.434Z,5.97
2023-03-17T14:12:59.189Z,4.20
2023-03-17T14:15:42.158Z,5.45
2023-03-17T14:18:11.196Z,6.07
2023-03-17T14:20:37.784Z,4.68
2023-03-17T14:23:04.324Z,5.80
2023-03-17T14:25:34.327Z,4.65
2023-03-17T14:28:00.895Z,4.77
2023-03-17T14:30:31.820Z,10.38
2023-03-17T14:33:14.083Z,6.68
2023-03-17T14:35:42.343Z,5.10
2023-03-17T14:38:19.970Z,3.80
2023-03-17T14:40:46.739Z,7.28
2023-03-17T14:43:13.263Z,8.85
2023-03-17T14:45:50.039Z,7.30
2023-03-17T14:48:17.464Z,8.17
2023-03-17T14:50:49.367Z,6.10
2023-03-17T14:53:16.167Z,6.50
2023-03-17T14:55:43.505Z,5.15
2023-03-17T14:58:20.337Z,6.72
2023-03-17T15:00:47.408Z,3.90
2023-03-17T15:03:17.279Z,6.28
2023-03-17T15:05:46.431Z,8.25
2023-03-17T15:08:31.659Z,5.73
2023-03-17T15:11:02.144Z,5.40
2023-03-17T15:13:28.862Z,5.87
2023-03-17T15:15:56.147Z,6.00
2023-03-17T15:18:23.621Z,3.97
2023-03-17T15:20:50.197Z,4.45
2023-03-17T15:23:18.363Z,3.60
2023-03-17T15:25:50.557Z,4.68
2023-03-17T15:28:20.788Z,3.35
2023-03-17T15:30:49.986Z,4.78
2023-03-17T15:33:18.168Z,4.43
2023-03-17T15:35:44.730Z,4.07
2023-03-17T15:38:11.624Z,5.23
2023-03-17T15:40:38.897Z,3.15
2023-03-17T15:43:05.705Z,6.30
2023-03-17T15:45:33.263Z,8.32
2023-03-17T15:47:59.824Z,5.90
2023-03-17T15:50:28.840Z,5.72
2023-03-17T15:52:58.651Z,5.85
2023-03-17T15:55:32.203Z,8.55
2023-03-17T15:57:58.750Z,4.05
2023-03-17T16:00:26.673Z,5.68
2023-03-17T16:02:56.271Z,5.05
2023-03-17T16:05:26.679Z,6.80
2023-03-17T16:07:53.664Z,8.07
2023-03-17T16:10:27.230Z,4.63
2023-03-17T16:12:53.723Z,6.40
2023-03-17T16:15:24.293Z,6.23
2023-03-17T16:17:54.604Z,7.28
2023-03-17T16:20:21.193Z,7.47
2023-03-17T16:22:47.861Z,6.75
2023-03-17T16:25:17.806Z,6.95
2023-03-17T16:27:44.317Z,6.90
2023-03-17T16:30:15.474Z,5.45
2023-03-17T16:32:41.966Z,5.35
2023-03-17T16:35:18.612Z,6.50
2023-03-17T16:37:45.324Z,6.85
2023-03-17T16:40:22.400Z,6.43
2023-03-17T16:42:49.087Z,6.85
2023-03-17T16:45:16.394Z,7.75
2023-03-17T16:47:42.860Z,8.05
2023-03-17T16:50:16.485Z,7.18
2023-03-17T16:52:43.157Z,4.75
2023-03-17T16:55:09.927Z,6.10
2023-03-17T16:57:37.206Z,8.73
2023-03-17T17:00:07.318Z,8.68
2023-03-17T17:02:33.887Z,8.20
2023-03-17T17:05:02.228Z,9.32
2023-03-17T17:07:28.974Z,6.80
2023-03-17T17:09:55.469Z,9.05
2023-03-17T17:12:22.014Z,15.90
2023-03-17T17:14:48.485Z,60.43
2023-03-17T17:17:15.026Z,57.43
2023-03-17T17:19:41.923Z,47.43
2023-03-17T17:22:10.514Z,41.60
2023-03-17T17:24:37.009Z,40.13
2023-03-17T17:27:03.548Z,36.67
2023-03-17T17:29:32.348Z,35.33
2023-03-17T17:31:59.088Z,32.90
2023-03-17T17:34:25.641Z,24.67
2023-03-17T17:36:52.151Z,24.97
2023-03-17T17:39:18.668Z,17.40
2023-03-17T17:41:45.356Z,17.73
2023-03-17T17:44:11.909Z,20.13
2023-03-17T17:46:38.629Z,20.03
2023-03-17T17:49:05.333Z,19.97
2023-03-17T17:51:32.878Z,22.87
2023-03-17T17:53:59.516Z,20.53
2023-03-17T17:56:26.152Z,22.33
2023-03-17T17:58:52.687Z,19.50
2023-03-17T18:01:22.450Z,17.73
2023-03-17T18:03:49.131Z,17.93
2023-03-17T18:06:17.241Z,21.10
2023-03-17T18:08:44.427Z,16.07
2023-03-17T18:11:11.097Z,15.63
2023-03-17T18:13:39.111Z,16.37
2023-03-17T18:16:09.872Z,17.27
2023-03-17T18:18:38.143Z,15.47
2023-03-17T18:21:04.673Z,14.67
2023-03-17T18:23:31.315Z,15.47
2023-03-17T18:26:01.476Z,14.77
2023-03-17T18:28:28.219Z,17.40
2023-03-17T18:30:55.102Z,14.73
2023-03-17T18:33:21.776Z,12.47
2023-03-17T18:35:49.300Z,17.57
2023-03-17T18:38:16.310Z,19.67
2023-03-17T18:40:42.907Z,24.93
2023-03-17T18:43:09.383Z,30.10
2023-03-17T18:45:36.336Z,27.07
2023-03-17T18:48:03.145Z,23.47
2023-03-17T18:50:30.154Z,21.97
2023-03-17T18:52:57.337Z,23.60
2023-03-17T18:55:23.904Z,23.93
2023-03-17T18:57:50.411Z,19.40
2023-03-17T19:00:18.682Z,23.27
2023-03-17T19:02:45.825Z,21.00
2023-03-17T19:05:12.968Z,26.97
2023-03-17T19:07:40.986Z,26.97
2023-03-17T19:10:08.148Z,27.63
2023-03-17T19:12:34.665Z,24.70
2023-03-17T19:15:01.837Z,24.90
2023-03-17T19:17:28.603Z,24.53
2023-03-17T19:19:57.168Z,22.27
2023-03-17T19:22:24.007Z,22.67
2023-03-17T19:24:50.670Z,22.87
2023-03-17T19:27:17.542Z,21.10
2023-03-17T19:29:44.321Z,25.67
2023-03-17T19:32:10.968Z,16.63
2023-03-17T19:34:37.482Z,16.83
2023-03-17T19:37:04.334Z,14.00
2023-03-17T19:39:31.511Z,14.23
2023-03-17T19:41:59.421Z,18.17
2023-03-17T19:44:26.083Z,13.77
2023-03-17T19:46:52.700Z,16.40
2023-03-17T19:49:21.196Z,15.40
2023-03-17T19:51:49.146Z,17.60
2023-03-17T19:54:16.047Z,16.23
2023-03-17T19:56:42.659Z,16.97
2023-03-17T19:59:09.584Z,16.27
2023-03-17T20:01:38.058Z,15.23
2023-03-17T20:04:06.995Z,18.87
2023-03-17T20:06:34.726Z,16.10
2023-03-17T20:09:04.406Z,15.10
2023-03-17T20:11:34.138Z,18.10
2023-03-17T20:14:03.780Z,18.47
2023-03-17T20:16:33.731Z,26.37
2023-03-17T20:19:00.813Z,25.20
2023-03-17T20:21:27.457Z,22.30
2023-03-17T20:23:54.093Z,26.87
2023-03-17T20:26:20.637Z,25.10
2023-03-17T20:28:47.563Z,25.57
2023-03-17T20:31:14.099Z,22.73
2023-03-17T20:33:40.746Z,25.20
2023-03-17T20:36:07.982Z,21.67
2023-03-17T20:38:37.202Z,24.57
2023-03-17T20:41:07.771Z,26.80
2023-03-17T20:43:36.460Z,25.60
2023-03-17T20:46:06.029Z,25.10
2023-03-17T20:48:33.034Z,23.00
2023-03-17T20:51:00.423Z,25.47
2023-03-17T20:53:27.082Z,21.23
2023-03-17T20:55:55.078Z,18.87
2023-03-17T20:58:21.673Z,20.47
2023-03-17T21:00:49.382Z,18.80
2023-03-17T21:03:18.041Z,19.60
2023-03-17T21:05:45.900Z,25.80
2023-03-17T21:08:12.478Z,21.93
2023-03-17T21:10:39.088Z,21.37
2023-03-17T21:13:05.718Z,21.23
2023-03-17T21:15:32.245Z,20.10
2023-03-17T21:17:58.785Z,21.33
2023-03-17T21:20:26.307Z,21.07
2023-03-17T21:22:52.943Z,25.10
2023-03-17T21:25:20.170Z,27.60
2023-03-17T21:27:46.860Z,23.77
2023-03-17T21:30:14.372Z,26.17
2023-03-17T21:32:41.982Z,19.87
2023-03-17T21:35:08.840Z,27.13
2023-03-17T21:37:35.534Z,23.47
2023-03-17T21:40:02.156Z,20.77
2023-03-17T21:42:29.166Z,23.87
2023-03-17T21:44:55.743Z,24.63
2023-03-17T21:47:22.271Z,23.77
2023-03-17T21:49:48.788Z,29.13
2023-03-17T21:52:15.423Z,26.20
2023-03-17T21:54:42.120Z,25.63
2023-03-17T21:57:08.732Z,25.00
2023-03-17T21:59:35.861Z,23.37
2023-03-17T22:02:02.994Z,25.33
2023-03-17T22:04:30.005Z,31.50
2023-03-17T22:06:56.559Z,23.53
2023-03-17T22:09:23.119Z,26.43
2023-03-17T22:11:49.930Z,24.13
2023-03-17T22:14:20.151Z,26.47
2023-03-17T22:16:47.379Z,24.80
2023-03-17T22:19:14.056Z,22.70
2023-03-17T22:21:40.710Z,25.17
2023-03-17T22:24:07.432Z,25.77
2023-03-17T22:26:34.319Z,26.80
2023-03-17T22:29:01.540Z,36.50
2023-03-17T22:31:28.506Z,40.10
2023-03-17T22:33:56.349Z,25.17
2023-03-17T22:36:23.214Z,34.63
2023-03-17T22:38:49.771Z,31.13
2023-03-17T22:41:17.732Z,29.37
2023-03-17T22:43:44.287Z,29.37
2023-03-17T22:46:11.262Z,29.73
2023-03-17T22:48:38.067Z,28.43
2023-03-17T22:51:08.544Z,30.27
2023-03-17T22:53:35.229Z,25.90
2023-03-17T22:56:01.761Z,30.47
2023-03-17T22:58:28.369Z,27.63
2023-03-17T23:00:55.433Z,32.63
2023-03-17T23:03:22.640Z,25.17
2023-03-17T23:05:50.519Z,28.40
2023-03-17T23:08:18.024Z,31.27
2023-03-17T23:10:44.651Z,31.93
2023-03-17T23:13:11.582Z,33.23
2023-03-17T23:15:38.143Z,32.53
2023-03-17T23:18:04.836Z,29.43
2023-03-17T23:20:31.650Z,27.87
2023-03-17T23:22:58.316Z,31.83
2023-03-17T23:25:24.953Z,35.33
2023-03-17T23:27:51.717Z,28.93
2023-03-17T23:30:18.911Z,32.10
2023-03-17T23:32:45.571Z,35.07
2023-03-17T23:35:12.770Z,27.13
2023-03-17T23:37:39.295Z,32.83
2023-03-17T23:40:06.504Z,30.70
2023-03-17T23:42:33.217Z,27.77
2023-03-17T23:44:59.787Z,31.30
2023-03-17T23:47:27.133Z,33.20
2023-03-17T23:49:53.744Z,28.73
2023-03-17T23:52:21.222Z,26.13
2023-03-17T23:54:48.095Z,28.13
2023-03-17T23:57:14.683Z,27.10
2023-03-17T23:59:41.479Z,23.27
